Time;durP1;ratioP1;P1;durP2;ratioP2;P2;SDS_P1;SDS_P2;PMS_P1;PMS_P2;Temp;Humidity;BMP_temperature;BMP_pressure;BME280_temperature;BME280_humidity;BME280_pressure;Samples;Min_cycle;Max_cycle;Signal;HPM_P1;HPM_P2
2021/01/09 00:00:19;;;;;;;66.03;41.70;;;51.30;2227.20;;;;;;5013048;28;20497;-78
2021/01/09 00:02:45;;;;;;;71.23;43.60;;;51.30;2227.20;;;;;;5014139;28;20037;-77
2021/01/09 00:05:13;;;;;;;71.80;43.47;;;51.20;2227.20;;;;;;5014220;28;20033;-79
2021/01/09 00:07:38;;;;;;;75.30;44.53;;;51.20;2227.20;;;;;;5014612;28;20080;-80
2021/01/09 00:10:07;;;;;;;76.23;45.33;;;51.20;2227.20;;;;;;5010438;28;20025;-80
2021/01/09 00:12:37;;;;;;;71.07;44.50;;;51.20;2227.20;;;;;;5011349;28;20030;-82
2021/01/09 00:15:07;;;;;;;71.30;43.93;;;51.20;2227.20;;;;;;5014263;28;20022;-82
2021/01/09 00:17:37;;;;;;;64.80;40.60;;;51.20;2227.20;;;;;;5014354;28;20026;-83
2021/01/09 00:20:09;;;;;;;71.43;43.70;;;51.20;2227.20;;;;;;5013294;28;20029;-80
2021/01/09 00:22:35;;;;;;;65.30;41.70;;;26.50;2201.60;;;;;;5002925;28;20046;-81
2021/01/09 00:25:02;;;;;;;66.50;40.10;;;51.20;2227.20;;;;;;4998586;28;20095;-82
2021/01/09 00:27:28;;;;;;;60.50;36.77;;;51.20;2227.20;;;;;;5026091;28;20022;-80
2021/01/09 00:29:53;;;;;;;59.83;36.63;;;51.20;2227.20;;;;;;4994618;28;20031;-81
2021/01/09 00:32:19;;;;;;;60.03;37.40;;;51.20;2227.20;;;;;;4993530;28;20498;-83
2021/01/09 00:34:45;;;;;;;61.53;38.20;;;51.20;2227.20;;;;;;4993616;28;20426;-82
2021/01/09 00:37:11;;;;;;;61.50;38.17;;;26.50;2201.60;;;;;;4993307;28;20065;-82
2021/01/09 00:39:37;;;;;;;65.17;38.90;;;26.50;2201.60;;;;;;4993185;28;20030;-82
2021/01/09 00:42:03;;;;;;;64.67;39.30;;;26.50;2201.60;;;;;;5026024;28;20042;-81
2021/01/09 00:44:29;;;;;;;64.37;39.23;;;26.50;2201.60;;;;;;4993167;28;20027;-82
2021/01/09 00:46:55;;;;;;;61.60;38.13;;;26.50;2201.60;;;;;;5026188;28;20380;-81
2021/01/09 00:49:22;;;;;;;63.30;38.40;;;26.40;2201.60;;;;;;4994251;28;20161;-83
2021/01/09 00:51:48;;;;;;;61.03;37.87;;;26.30;2201.60;;;;;;5026065;28;20475;-82
2021/01/09 00:54:15;;;;;;;61.77;39.27;;;26.40;2201.60;;;;;;4994510;28;20026;-82
2021/01/09 00:56:41;;;;;;;65.90;38.63;;;26.30;2201.60;;;;;;4993421;28;20376;-83
2021/01/09 00:59:07;;;;;;;70.50;39.40;;;26.40;2201.60;;;;;;4993227;28;20379;-83
2021/01/09 01:01:33;;;;;;;71.37;40.27;;;26.40;2201.60;;;;;;4992981;28;20073;-82
2021/01/09 01:04:00;;;;;;;70.63;41.13;;;26.40;2201.60;;;;;;5025880;28;20037;-83
2021/01/09 01:06:26;;;;;;;65.93;40.30;;;26.30;2201.60;;;;;;4992836;28;20033;-83
2021/01/09 01:08:55;;;;;;;63.80;39.33;;;26.30;2201.60;;;;;;4993011;28;20022;-83
2021/01/09 01:11:28;;;;;;;65.10;38.37;;;26.40;2201.60;;;;;;4994275;28;20125;-83
2021/01/09 01:13:55;;;;;;;67.20;39.25;;;26.40;2201.60;;;;;;4994037;28;20015;-83
2021/01/09 01:16:22;;;;;;;66.53;40.03;;;26.40;2201.60;;;;;;4994144;28;20052;-82
2021/01/09 01:18:48;;;;;;;68.20;38.90;;;26.30;2201.60;;;;;;5025700;28;20030;-83
2021/01/09 01:21:14;;;;;;;61.57;39.33;;;26.40;2201.60;;;;;;4992648;28;20403;-82
2021/01/09 01:23:40;;;;;;;61.73;37.03;;;26.40;2201.60;;;;;;4992745;28;20030;-81
2021/01/09 01:26:08;;;;;;;62.90;37.40;;;26.40;2201.60;;;;;;4993910;28;20445;-80
2021/01/09 01:28:34;;;;;;;60.03;37.93;;;26.40;2201.60;;;;;;4992503;28;20161;-79
2021/01/09 01:31:00;;;;;;;59.87;38.63;;;26.40;2201.60;;;;;;4993786;28;20105;-82
2021/01/09 01:33:26;;;;;;;59.17;36.70;;;26.40;2201.60;;;;;;4993864;28;20447;-82
2021/01/09 01:35:52;;;;;;;63.57;39.77;;;26.40;2201.60;;;;;;4996557;28;20487;-82
2021/01/09 01:38:18;;;;;;;60.97;37.07;;;26.40;2201.60;;;;;;4997549;28;20031;-83
2021/01/09 01:40:44;;;;;;;64.30;39.63;;;26.30;2201.60;;;;;;4996294;28;20109;-82
2021/01/09 01:43:12;;;;;;;65.40;39.33;;;26.30;2201.60;;;;;;4996299;28;20587;-83
2021/01/09 01:45:39;;;;;;;71.23;41.83;;;26.30;2201.60;;;;;;4996211;28;20033;-84
2021/01/09 01:48:09;;;;;;;63.80;37.77;;;26.30;2201.60;;;;;;4996359;28;20039;-84
2021/01/09 01:50:38;;;;;;;62.90;38.33;;;26.30;2201.60;;;;;;4996600;28;20494;-84
2021/01/09 01:53:05;;;;;;;63.67;38.30;;;26.20;2201.60;;;;;;4997504;28;20026;-84
2021/01/09 01:55:31;;;;;;;67.07;41.17;;;26.20;2201.60;;;;;;4997698;28;20018;-81
2021/01/09 01:57:57;;;;;;;67.57;40.57;;;26.10;2201.60;;;;;;4996266;28;20486;-83
2021/01/09 02:00:27;;;;;;;70.90;41.57;;;26.10;2201.60;;;;;;4996148;28;20494;-81
2021/01/09 02:03:00;;;;;;;71.23;43.20;;;26.00;2201.60;;;;;;4996005;28;20074;-84
2021/01/09 02:05:33;;;;;;;86.82;49.30;;;26.00;2201.60;;;;;;4996164;28;20121;-84
2021/01/09 02:08:02;;;;;;;88.28;51.28;;;25.90;2201.60;;;;;;4997421;28;20105;-84
2021/01/09 02:10:28;;;;;;;107.53;54.93;;;25.90;2201.60;;;;;;4996091;28;20494;-84
2021/01/09 02:13:52;;;;;;;102.53;51.30;;;25.90;2201.60;;;;;;4996107;28;20022;-84
2021/01/09 02:16:18;;;;;;;107.07;51.40;;;25.90;2201.60;;;;;;4972928;28;20049;-84
2021/01/09 02:18:48;;;;;;;109.50;54.10;;;25.90;2201.60;;;;;;4959537;28;20031;-84
2021/01/09 02:21:37;;;;;;;113.53;55.63;;;25.90;2201.60;;;;;;4975644;28;20066;-84
2021/01/09 02:24:12;;;;;;;116.23;53.57;;;25.90;2201.60;;;;;;4959744;28;20022;-84
2021/01/09 02:26:38;;;;;;;102.80;51.67;;;26.00;2201.60;;;;;;4959594;28;20031;-84
2021/01/09 02:29:04;;;;;;;113.73;53.17;;;26.00;2201.60;;;;;;4959414;28;20682;-83
2021/01/09 02:31:37;;;;;;;115.17;53.83;;;26.00;2201.60;;;;;;4959433;28;20130;-83
2021/01/09 02:34:05;;;;;;;113.22;56.83;;;25.90;2201.60;;;;;;4959124;28;20033;-82
2021/01/09 02:36:31;;;;;;;86.60;47.07;;;25.90;2201.60;;;;;;4974731;28;20135;-83
2021/01/09 02:38:57;;;;;;;101.63;50.73;;;25.90;2201.60;;;;;;4975050;28;20081;-84
2021/01/09 02:41:25;;;;;;;87.90;48.53;;;25.80;2201.60;;;;;;4974740;28;20585;-82
2021/01/09 02:43:50;;;;;;;98.37;50.40;;;25.90;2201.60;;;;;;4975177;28;20083;-84
2021/01/09 02:46:16;;;;;;;95.10;50.50;;;25.80;2201.60;;;;;;4975136;28;20416;-84
2021/01/09 02:48:42;;;;;;;118.70;58.03;;;25.80;2201.60;;;;;;4958758;28;20046;-84
2021/01/09 02:51:08;;;;;;;128.10;61.43;;;25.80;2201.60;;;;;;4971349;28;20046;-84
2021/01/09 02:53:34;;;;;;;119.47;61.60;;;25.70;2201.60;;;;;;4996280;28;20026;-84
2021/01/09 02:56:03;;;;;;;115.63;58.57;;;25.70;2201.60;;;;;;4994591;28;20026;-79
2021/01/09 02:58:29;;;;;;;123.60;60.73;;;25.70;2201.60;;;;;;4995888;28;20076;-80
2021/01/09 03:00:55;;;;;;;122.07;59.20;;;25.70;2201.60;;;;;;4994498;28;20120;-85
2021/01/09 03:03:21;;;;;;;121.43;62.93;;;25.60;2201.60;;;;;;5027556;28;20041;-84
2021/01/09 03:05:47;;;;;;;121.23;61.67;;;25.60;2201.60;;;;;;4995861;28;20073;-83
2021/01/09 03:08:12;;;;;;;120.23;61.77;;;25.60;2201.60;;;;;;5027506;28;20026;-79
2021/01/09 03:10:38;;;;;;;113.40;60.03;;;25.60;2201.60;;;;;;4994486;28;20121;-84
2021/01/09 03:13:04;;;;;;;105.87;56.53;;;25.60;2201.60;;;;;;5027220;28;20034;-84
2021/01/09 03:15:30;;;;;;;104.00;55.33;;;25.60;2201.60;;;;;;4994604;28;20058;-81
2021/01/09 03:17:56;;;;;;;108.17;56.13;;;25.60;2201.60;;;;;;4995543;28;20038;-83
2021/01/09 03:20:22;;;;;;;104.80;57.40;;;25.60;2201.60;;;;;;4994436;28;20030;-85
2021/01/09 03:22:47;;;;;;;98.93;52.70;;;25.60;2201.60;;;;;;4995578;28;20502;-85
2021/01/09 03:25:13;;;;;;;106.50;57.70;;;25.60;2201.60;;;;;;4994493;28;20121;-84
2021/01/09 03:27:42;;;;;;;106.57;57.80;;;25.60;2201.60;;;;;;4995787;28;20030;-84
2021/01/09 03:30:09;;;;;;;111.90;59.97;;;25.60;2201.60;;;;;;4995526;28;20066;-82
2021/01/09 03:32:48;;;;;;;107.00;58.10;;;25.60;2201.60;;;;;;4993885;28;20117;-83
2021/01/09 03:35:14;;;;;;;100.20;55.57;;;0.90;2201.60;;;;;;4994389;28;20081;-80
2021/01/09 03:37:40;;;;;;;105.20;55.67;;;0.90;2201.60;;;;;;5027221;28;20423;-83
2021/01/09 03:40:07;;;;;;;111.13;59.17;;;25.60;2201.60;;;;;;4978048;28;20030;-81
2021/01/09 03:42:33;;;;;;;107.67;57.23;;;25.60;2201.60;;;;;;5010377;28;20609;-82
2021/01/09 03:44:59;;;;;;;111.23;58.17;;;0.90;2201.60;;;;;;4995426;28;20042;-82
2021/01/09 03:47:25;;;;;;;108.47;57.43;;;0.90;2201.60;;;;;;5026840;28;20026;-82
2021/01/09 03:49:51;;;;;;;111.90;55.77;;;0.90;2201.60;;;;;;4995151;28;20047;-82
2021/01/09 03:52:17;;;;;;;109.67;57.73;;;0.90;2201.60;;;;;;4994049;28;20026;-81
2021/01/09 03:54:43;;;;;;;96.80;53.70;;;0.80;2201.60;;;;;;4993632;28;20065;-84
2021/01/09 03:57:09;;;;;;;111.13;60.63;;;0.90;2201.60;;;;;;4993212;28;20030;-82
2021/01/09 03:59:35;;;;;;;112.63;61.03;;;0.80;2201.60;;;;;;4993538;28;20054;-82
2021/01/09 04:02:17;;;;;;;105.40;58.07;;;0.80;2201.60;;;;;;4993665;28;20042;-85
2021/01/09 04:05:05;;;;;;;128.00;70.13;;;0.80;2201.60;;;;;;4980128;28;20427;-84
2021/01/09 04:07:44;;;;;;;150.10;76.90;;;0.70;2201.60;;;;;;4999524;28;20041;-81
2021/01/09 04:10:15;;;;;;;118.97;63.07;;;0.70;2201.60;;;;;;4997105;28;20074;-84
2021/01/09 04:12:41;;;;;;;96.77;54.13;;;0.80;2201.60;;;;;;4995115;28;20173;-81
2021/01/09 04:15:16;;;;;;;110.03;58.53;;;0.80;2201.60;;;;;;4995252;28;20026;-82
2021/01/09 04:17:42;;;;;;;97.20;54.17;;;0.80;2201.60;;;;;;4994108;28;20037;-82
2021/01/09 04:20:10;;;;;;;97.63;53.20;;;0.80;2201.60;;;;;;4994788;28;20018;-83
2021/01/09 04:22:53;;;;;;;104.27;57.13;;;25.60;2201.60;;;;;;4993534;28;20037;-84
2021/01/09 04:25:19;;;;;;;90.97;53.45;;;0.80;2201.60;;;;;;4993565;28;20026;-84
2021/01/09 04:27:45;;;;;;;110.63;59.20;;;0.70;2201.60;;;;;;4993149;28;20077;-82
2021/01/09 04:30:12;;;;;;;109.03;60.03;;;0.70;2201.60;;;;;;4994799;28;20130;-83
2021/01/09 04:32:38;;;;;;;102.53;55.77;;;0.70;2201.60;;;;;;4992441;28;20030;-82
2021/01/09 04:35:05;;;;;;;98.30;53.83;;;0.70;2201.60;;;;;;4993831;28;20049;-82
2021/01/09 04:37:51;;;;;;;96.70;53.57;;;0.60;2201.60;;;;;;4995259;28;20022;-81
2021/01/09 04:41:23;;;;;;;96.73;52.40;;;0.60;2201.60;;;;;;5001685;28;20037;-81
2021/01/09 04:44:46;;;;;;;102.33;54.87;;;0.50;2201.60;;;;;;4964035;29;20031;-78
2021/01/09 04:47:14;;;;;;;98.47;52.90;;;0.50;2201.60;;;;;;4943891;29;20030;-77
2021/01/09 04:49:45;;;;;;;98.37;54.73;;;0.60;2201.60;;;;;;4937367;29;20492;-80
2021/01/09 04:52:11;;;;;;;104.53;57.20;;;0.60;2201.60;;;;;;4938421;29;20039;-83
2021/01/09 04:54:39;;;;;;;92.30;51.97;;;0.60;2201.60;;;;;;4954410;28;20066;-82
2021/01/09 04:57:05;;;;;;;95.60;51.83;;;0.50;2201.60;;;;;;4939693;29;20480;-80
2021/01/09 04:59:34;;;;;;;98.17;56.17;;;0.50;2201.60;;;;;;4962324;29;20071;-80
2021/01/09 05:02:01;;;;;;;109.33;59.83;;;0.50;2201.60;;;;;;4969799;28;20531;-80
2021/01/09 05:04:27;;;;;;;122.07;65.73;;;0.50;2201.60;;;;;;4953740;29;20067;-79
2021/01/09 05:06:53;;;;;;;128.20;69.77;;;0.40;2201.60;;;;;;4971657;28;20106;-78
2021/01/09 05:09:20;;;;;;;111.07;62.33;;;0.30;2201.60;;;;;;4957020;29;20086;-79
2021/01/09 05:11:46;;;;;;;110.80;62.43;;;0.30;2201.60;;;;;;4975720;29;20031;-78
2021/01/09 05:14:15;;;;;;;118.77;62.20;;;0.30;2201.60;;;;;;4942463;29;20516;-79
2021/01/09 05:16:42;;;;;;;124.80;66.53;;;0.20;2201.60;;;;;;4945639;29;20043;-80
2021/01/09 05:19:09;;;;;;;147.97;75.83;;;0.30;2201.60;;;;;;4959969;29;20035;-81
2021/01/09 05:21:36;;;;;;;139.57;69.87;;;0.30;2201.60;;;;;;5032411;28;20064;-80
2021/01/09 05:24:09;;;;;;;139.00;70.23;;;0.30;2201.60;;;;;;5055335;28;20040;-79
2021/01/09 05:26:41;;;;;;;166.03;85.70;;;0.30;2201.60;;;;;;5039507;28;20041;-80
2021/01/09 05:29:08;;;;;;;173.90;85.90;;;0.30;2201.60;;;;;;5038215;28;20045;-79
2021/01/09 05:31:37;;;;;;;149.03;77.10;;;0.30;2201.60;;;;;;5049987;28;20409;-78
2021/01/09 05:34:58;;;;;;;149.23;77.13;;;0.30;2201.60;;;;;;5024187;28;20045;-79
2021/01/09 05:37:26;;;;;;;128.47;67.43;;;0.30;2201.60;;;;;;5011778;28;20090;-81
2021/01/09 05:39:58;;;;;;;125.83;68.23;;;0.20;2201.60;;;;;;5011779;28;20053;-79
2021/01/09 05:42:28;;;;;;;118.67;67.00;;;0.20;2201.60;;;;;;5030297;28;20046;-79
2021/01/09 05:44:55;;;;;;;120.67;68.60;;;0.20;2201.60;;;;;;5014242;28;20035;-78
2021/01/09 05:47:26;;;;;;;122.40;68.83;;;0.20;2201.60;;;;;;5013740;28;20026;-79
2021/01/09 05:57:05;;;;;;;124.10;69.43;;;0.30;2201.60;;;;;;4954534;29;20508;-79
2021/01/09 05:59:33;;;;;;;118.80;67.20;;;0.30;2201.60;;;;;;4954604;29;20044;-80
2021/01/09 06:02:00;;;;;;;116.50;63.97;;;0.20;2201.60;;;;;;4945978;29;20090;-78
2021/01/09 06:04:33;;;;;;;112.67;62.40;;;0.10;2201.60;;;;;;4947203;29;20496;-78
2021/01/09 06:07:15;;;;;;;112.10;62.42;;;0.10;2201.60;;;;;;4945423;29;20043;-78
2021/01/09 06:10:09;;;;;;;130.93;68.47;;;0.00;2201.60;;;;;;4941085;29;20020;-77
2021/01/09 06:12:42;;;;;;;159.57;79.03;;;0.00;2201.60;;;;;;4936384;29;20035;-77
2021/01/09 06:15:14;;;;;;;197.82;93.57;;;0.00;2201.60;;;;;;4941876;29;20072;-77
2021/01/09 06:17:41;;;;;;;190.80;87.17;;;0.00;2201.60;;;;;;4942910;29;20385;-77
2021/01/09 06:20:08;;;;;;;178.40;90.13;;;0.00;2201.60;;;;;;4942087;29;20034;-78
2021/01/09 06:22:37;;;;;;;187.07;96.03;;;0.00;2201.60;;;;;;4942192;29;20047;-77
2021/01/09 06:25:03;;;;;;;202.13;104.43;;;0.10;2201.60;;;;;;4957948;29;20028;-78
2021/01/09 06:27:34;;;;;;;189.77;99.97;;;0.10;2201.60;;;;;;4947156;28;20038;-78
2021/01/09 06:30:04;;;;;;;195.80;103.97;;;0.20;2201.60;;;;;;4962223;28;20022;-78
2021/01/09 06:32:37;;;;;;;190.37;103.00;;;0.20;2201.60;;;;;;4962247;28;20034;-77
2021/01/09 06:35:15;;;;;;;216.43;109.32;;;0.10;2201.60;;;;;;5019893;28;20533;-77
2021/01/09 06:37:42;;;;;;;205.13;104.37;;;0.10;2201.60;;;;;;5028200;28;20487;-81
2021/01/09 06:40:34;;;;;;;185.93;97.77;;;0.10;2201.60;;;;;;5033207;28;20014;-83
2021/01/09 06:43:00;;;;;;;172.53;89.03;;;0.10;2201.60;;;;;;5029122;28;20056;-80
2021/01/09 06:45:29;;;;;;;165.63;88.50;;;0.10;2201.60;;;;;;5031089;28;20021;-77
2021/01/09 06:48:01;;;;;;;159.57;85.90;;;0.20;2201.60;;;;;;5025611;28;20044;-77
2021/01/09 06:50:46;;;;;;;181.37;95.53;;;0.20;2201.60;;;;;;5029490;28;20061;-79
2021/01/09 07:04:05;;;;;;;204.30;105.63;;;0.40;2201.60;;;;;;4975192;28;20038;-80
2021/01/09 07:07:41;;;;;;;179.03;96.57;;;0.40;2201.60;;;;;;4916963;29;20033;-82
2021/01/09 07:10:28;;;;;;;181.27;100.30;;;0.40;2201.60;;;;;;4857626;29;20038;-77
2021/01/09 07:12:55;;;;;;;167.90;92.47;;;0.40;2201.60;;;;;;4846938;29;20049;-84
2021/01/09 07:15:48;;;;;;;167.07;90.50;;;0.50;2201.60;;;;;;4846880;29;20029;-82
2021/01/09 07:25:11;;;;;;;167.47;92.77;;;0.60;2201.60;;;;;;4867554;29;20048;-83
2021/01/09 07:57:36;;;;;;;165.53;87.53;;;25.60;2201.60;;;;;;5027159;22;20046;-88
2021/01/09 08:00:08;;;;;;;148.37;82.47;;;25.70;2201.60;;;;;;4985710;28;20026;-86
2021/01/09 08:02:36;;;;;;;226.97;126.10;;;25.80;2201.60;;;;;;4984900;28;20034;-86
2021/01/09 08:05:08;;;;;;;200.23;116.03;;;25.80;2201.60;;;;;;4983127;28;20018;-87
2021/01/09 08:08:02;;;;;;;218.60;125.10;;;25.90;2201.60;;;;;;4983784;28;20049;-87
2021/01/09 08:10:38;;;;;;;204.10;113.20;;;26.00;2201.60;;;;;;4985326;28;20026;-87
2021/01/09 08:13:06;;;;;;;203.17;117.03;;;26.10;2201.60;;;;;;4979038;28;20026;-87
2021/01/09 08:15:34;;;;;;;219.63;117.33;;;26.10;2201.60;;;;;;4985191;28;20022;-87
2021/01/09 08:18:03;;;;;;;219.87;118.87;;;26.10;2201.60;;;;;;4984664;28;20034;-86
2021/01/09 08:20:29;;;;;;;247.57;129.90;;;26.30;2201.60;;;;;;4984373;28;20026;-87
2021/01/09 08:22:57;;;;;;;213.37;114.13;;;26.30;2201.60;;;;;;4980024;28;20070;-86
2021/01/09 08:25:25;;;;;;;340.17;149.47;;;26.40;2201.60;;;;;;4984834;28;20022;-85
2021/01/09 08:27:56;;;;;;;371.80;165.30;;;26.50;2201.60;;;;;;4994204;28;20073;-86
2021/01/09 08:30:28;;;;;;;297.90;147.20;;;51.20;2227.20;;;;;;4994082;28;20475;-84
2021/01/09 08:33:02;;;;;;;245.03;123.77;;;51.20;2227.20;;;;;;4983586;28;20027;-83
2021/01/09 08:35:28;;;;;;;188.00;102.53;;;51.20;2227.20;;;;;;4982866;28;20054;-83
2021/01/09 08:37:54;;;;;;;161.60;95.97;;;51.30;2227.20;;;;;;4983308;28;20030;-84
2021/01/09 08:40:23;;;;;;;138.83;80.60;;;51.30;2227.20;;;;;;4982353;28;20027;-84
2021/01/09 08:42:56;;;;;;;147.87;80.83;;;51.40;2227.20;;;;;;4979836;28;20043;-86
2021/01/09 08:45:41;;;;;;;;;;;51.50;2227.20;;;;;;4975499;28;20435;-85
2021/01/09 08:48:12;;;;;;;161.75;84.35;;;51.50;2227.20;;;;;;4974040;28;19910;-77
2021/01/09 08:51:01;;;;;;;174.73;103.23;;;51.50;2227.20;;;;;;4975127;28;20477;-85
2021/01/09 08:53:30;;;;;;;137.20;94.90;;;51.60;2227.20;;;;;;4966071;28;20026;-83
2021/01/09 08:56:02;;;;;;;113.40;68.97;;;51.60;2227.20;;;;;;4974777;28;20066;-83
2021/01/09 08:58:30;;;;;;;116.13;69.07;;;51.60;2227.20;;;;;;4973300;28;20027;-84
2021/01/09 09:00:57;;;;;;;125.10;70.80;;;51.70;2227.20;;;;;;4973737;28;20031;-83
2021/01/09 09:03:24;;;;;;;114.73;67.17;;;51.80;2227.20;;;;;;4973552;28;20049;-82
2021/01/09 09:05:51;;;;;;;92.40;58.10;;;51.80;2227.20;;;;;;4973486;28;20478;-83
2021/01/09 09:08:18;;;;;;;81.80;49.33;;;51.90;2227.20;;;;;;4973685;28;20026;-82
2021/01/09 09:10:46;;;;;;;133.20;82.87;;;52.00;2227.20;;;;;;4974654;28;20031;-82
2021/01/09 09:13:20;;;;;;;110.47;68.87;;;52.10;2227.20;;;;;;4973634;28;20484;-83
2021/01/09 09:15:48;;;;;;;98.28;57.53;;;76.80;2227.20;;;;;;4973633;28;20077;-83
2021/01/09 09:18:14;;;;;;;85.47;52.57;;;76.80;2227.20;;;;;;4974672;28;20383;-82
2021/01/09 09:20:46;;;;;;;85.17;52.83;;;76.90;2227.20;;;;;;4975242;28;20023;-82
2021/01/09 09:23:19;;;;;;;85.17;51.60;;;77.00;2227.20;;;;;;4974889;28;20599;-82
2021/01/09 09:25:46;;;;;;;84.63;53.30;;;77.00;2227.20;;;;;;4974638;28;20050;-83
2021/01/09 09:28:12;;;;;;;162.23;82.67;;;77.20;2227.20;;;;;;4973569;28;20035;-82
2021/01/09 09:30:38;;;;;;;78.63;46.97;;;77.20;2227.20;;;;;;4973435;28;20058;-82
2021/01/09 09:33:12;;;;;;;80.27;50.40;;;77.30;2227.20;;;;;;4973242;28;20132;-82
2021/01/09 09:35:38;;;;;;;;;;;77.30;2227.20;;;;;;4974698;28;20118;-82
2021/01/09 09:38:04;;;;;;;147.33;70.60;;;77.40;2227.20;;;;;;4973243;28;20000;-82
2021/01/09 09:40:32;;;;;;;130.60;71.63;;;77.30;2227.20;;;;;;4974274;28;20026;-82
2021/01/09 09:43:15;;;;;;;87.87;50.07;;;77.30;2227.20;;;;;;4973823;28;20039;-82
2021/01/09 09:45:55;;;;;;;99.90;54.83;;;77.40;2227.20;;;;;;4973226;28;20037;-82
2021/01/09 09:48:28;;;;;;;79.07;47.20;;;77.50;2227.20;;;;;;4973100;28;20034;-82
2021/01/09 09:51:14;;;;;;;84.53;48.85;;;77.60;2201.60;;;;;;4974501;28;20031;-82
2021/01/09 09:53:49;;;;;;;183.40;83.37;;;77.70;2227.20;;;;;;4974259;28;20027;-83
2021/01/09 09:56:21;;;;;;;208.47;91.60;;;102.40;2201.60;;;;;;4976772;28;20093;-83
2021/01/09 09:58:59;;;;;;;130.70;64.33;;;102.50;2227.20;;;;;;4977718;28;20054;-77
2021/01/09 10:01:26;;;;;;;72.20;44.53;;;102.60;2201.60;;;;;;4976171;28;20041;-78
2021/01/09 10:03:51;;;;;;;75.80;49.37;;;102.80;2176.00;;;;;;4977367;28;20122;-78
2021/01/09 10:06:18;;;;;;;90.63;52.83;;;128.00;2150.40;;;;;;4976182;28;20066;-78
2021/01/09 10:08:44;;;;;;;136.47;71.63;;;128.60;2073.60;;;;;;4975868;28;20530;-78
2021/01/09 10:11:11;;;;;;;97.13;55.40;;;128.50;2073.60;;;;;;4976293;28;20061;-74
2021/01/09 10:13:37;;;;;;;81.10;48.73;;;128.40;2099.20;;;;;;4976161;28;20057;-80
2021/01/09 10:16:04;;;;;;;89.03;54.37;;;128.30;2099.20;;;;;;4976168;28;20029;-76
2021/01/09 10:18:32;;;;;;;86.67;51.93;;;128.20;2124.80;;;;;;4976180;28;20031;-76
2021/01/09 10:20:58;;;;;;;60.37;39.43;;;128.10;2124.80;;;;;;4977427;28;20031;-80
2021/01/09 10:23:25;;;;;;;57.13;39.77;;;128.00;2124.80;;;;;;4977352;28;20396;-76
2021/01/09 10:25:51;;;;;;;56.07;38.83;;;128.50;2124.80;;;;;;4977125;28;20026;-76
2021/01/09 10:28:17;;;;;;;72.27;48.67;;;128.80;2124.80;;;;;;4977168;28;20038;-77
2021/01/09 10:30:46;;;;;;;68.40;44.83;;;128.80;2099.20;;;;;;4975957;28;20026;-80
2021/01/09 10:33:12;;;;;;;62.43;41.80;;;128.80;2073.60;;;;;;4977410;28;20514;-78
2021/01/09 10:35:38;;;;;;;63.03;43.50;;;128.70;2099.20;;;;;;4977153;28;20023;-77
2021/01/09 10:38:03;;;;;;;53.67;36.77;;;128.90;2124.80;;;;;;4977053;28;20110;-77
2021/01/09 10:40:29;;;;;;;46.13;34.03;;;128.90;2073.60;;;;;;4975438;28;20392;-76
2021/01/09 10:42:55;;;;;;;48.13;35.63;;;128.90;2073.60;;;;;;4975764;28;20035;-77
2021/01/09 10:45:21;;;;;;;67.30;45.30;;;128.80;2099.20;;;;;;4976834;28;20027;-77
2021/01/09 10:47:47;;;;;;;44.70;31.53;;;128.60;2073.60;;;;;;4977188;28;20027;-78
2021/01/09 10:50:13;;;;;;;64.90;41.27;;;128.60;2073.60;;;;;;4973952;28;20035;-78
2021/01/09 10:52:40;;;;;;;150.50;72.37;;;128.40;2073.60;;;;;;4975017;28;20247;-78
2021/01/09 10:55:06;;;;;;;63.23;39.70;;;128.40;2073.60;;;;;;4973637;28;20495;-77
2021/01/09 10:57:32;;;;;;;52.67;35.53;;;128.40;2124.80;;;;;;4974650;28;20500;-78
2021/01/09 10:59:58;;;;;;;83.53;44.37;;;128.40;2099.20;;;;;;4974108;28;20026;-78
2021/01/09 11:02:24;;;;;;;64.10;37.80;;;128.50;2099.20;;;;;;4974064;28;20299;-78
2021/01/09 11:04:50;;;;;;;76.73;44.67;;;128.50;2124.80;;;;;;4975943;28;20027;-78
2021/01/09 11:07:16;;;;;;;103.93;51.97;;;128.60;2099.20;;;;;;4976741;28;20037;-77
2021/01/09 11:09:42;;;;;;;93.40;46.37;;;128.60;2073.60;;;;;;4976169;28;20074;-78
2021/01/09 11:12:08;;;;;;;76.43;43.63;;;128.70;2099.20;;;;;;4975410;28;20026;-78
2021/01/09 11:14:34;;;;;;;65.10;42.43;;;128.60;2099.20;;;;;;4974986;28;20026;-77
2021/01/09 11:17:00;;;;;;;92.37;55.27;;;128.70;2099.20;;;;;;4976383;28;20027;-77
2021/01/09 11:19:26;;;;;;;78.87;44.50;;;128.70;2099.20;;;;;;4975072;28;20118;-77
2021/01/09 11:22:00;;;;;;;61.60;38.73;;;128.70;2099.20;;;;;;4974931;28;20498;-79
2021/01/09 11:24:33;;;;;;;89.80;49.73;;;128.70;2099.20;;;;;;4974942;28;20041;-78
2021/01/09 11:27:04;;;;;;;83.13;48.03;;;128.70;2099.20;;;;;;4974830;28;20034;-78
2021/01/09 11:29:30;;;;;;;53.93;33.37;;;128.70;2124.80;;;;;;4975556;28;20480;-77
2021/01/09 11:32:06;;;;;;;67.43;43.87;;;128.70;2099.20;;;;;;4973335;28;20019;-77
2021/01/09 11:34:33;;;;;;;52.83;35.77;;;128.80;2048.00;;;;;;4975165;28;20026;-76
2021/01/09 11:36:59;;;;;;;44.33;30.90;;;128.80;2048.00;;;;;;4975039;28;20065;-76
2021/01/09 11:39:25;;;;;;;46.10;32.63;;;128.90;2048.00;;;;;;4974206;28;20062;-77
2021/01/09 11:41:51;;;;;;;41.60;29.37;;;128.90;2048.00;;;;;;4972569;28;20031;-76
2021/01/09 11:44:17;;;;;;;40.33;28.17;;;128.90;2048.00;;;;;;4973792;28;20357;-77
2021/01/09 11:46:44;;;;;;;45.20;28.00;;;128.90;2022.40;;;;;;4972671;28;20137;-76
2021/01/09 11:49:10;;;;;;;44.00;27.83;;;153.70;1996.80;;;;;;4972641;28;20027;-76
2021/01/09 11:51:36;;;;;;;57.03;36.23;;;153.60;1996.80;;;;;;4973909;28;20084;-78
2021/01/09 11:54:02;;;;;;;50.10;33.50;;;128.90;2022.40;;;;;;4973772;28;20158;-76
2021/01/09 11:56:28;;;;;;;61.30;37.70;;;128.90;2022.40;;;;;;4974096;28;20503;-76
2021/01/09 11:58:54;;;;;;;73.60;45.13;;;128.90;2048.00;;;;;;4974303;28;20027;-76
2021/01/09 12:01:19;;;;;;;60.27;37.80;;;128.80;2048.00;;;;;;4974095;28;20077;-79
2021/01/09 12:03:46;;;;;;;53.63;36.93;;;128.80;2048.00;;;;;;4975300;28;20105;-79
2021/01/09 12:06:16;;;;;;;59.00;37.40;;;128.80;2073.60;;;;;;4974160;28;20027;-78
2021/01/09 12:08:42;;;;;;;94.33;48.27;;;128.80;2048.00;;;;;;4974141;28;20035;-79
2021/01/09 12:11:08;;;;;;;63.70;36.93;;;128.70;2048.00;;;;;;4975374;28;20027;-79
2021/01/09 12:13:36;;;;;;;116.73;63.30;;;128.70;2022.40;;;;;;4975312;28;20491;-78
2021/01/09 12:16:03;;;;;;;70.20;43.47;;;128.80;2073.60;;;;;;4975559;28;20535;-79
2021/01/09 12:18:29;;;;;;;51.03;31.57;;;128.80;2022.40;;;;;;4974681;28;20395;-79
2021/01/09 12:20:55;;;;;;;83.37;44.90;;;128.80;2099.20;;;;;;4973864;28;20053;-79
2021/01/09 12:23:21;;;;;;;46.97;27.37;;;128.80;2099.20;;;;;;4973908;28;20483;-76
2021/01/09 12:25:47;;;;;;;68.60;40.47;;;128.80;2073.60;;;;;;4973836;28;20065;-79
2021/01/09 12:28:13;;;;;;;43.73;28.50;;;128.70;2073.60;;;;;;4973809;28;20031;-78
2021/01/09 12:30:39;;;;;;;35.73;23.07;;;128.80;1996.80;;;;;;4973707;28;20034;-79
2021/01/09 12:33:06;;;;;;;43.60;29.57;;;128.70;2022.40;;;;;;4973735;28;20034;-79
2021/01/09 12:35:32;;;;;;;37.27;23.90;;;128.80;2048.00;;;;;;4973120;28;20035;-79
2021/01/09 12:37:58;;;;;;;32.53;22.57;;;128.80;2048.00;;;;;;4974785;28;20031;-79
2021/01/09 12:40:24;;;;;;;37.10;24.63;;;128.80;2099.20;;;;;;4973513;28;20027;-78
2021/01/09 12:42:50;;;;;;;62.73;37.27;;;128.90;2073.60;;;;;;4973356;28;20136;-78
2021/01/09 12:45:16;;;;;;;33.27;23.53;;;128.80;2048.00;;;;;;4974616;28;20050;-81
2021/01/09 12:47:46;;;;;;;30.03;21.33;;;128.90;2022.40;;;;;;4974736;28;20026;-78
2021/01/09 12:50:12;;;;;;;33.67;23.97;;;128.90;2073.60;;;;;;4973402;28;20121;-80
2021/01/09 12:52:38;;;;;;;47.97;25.90;;;128.80;2048.00;;;;;;4974734;28;20101;-73
2021/01/09 12:55:04;;;;;;;31.80;22.43;;;128.80;2022.40;;;;;;4975149;28;20033;-86
2021/01/09 12:57:30;;;;;;;42.10;29.20;;;128.80;2022.40;;;;;;4973440;28;20129;-73
2021/01/09 12:59:56;;;;;;;60.87;39.43;;;128.80;2022.40;;;;;;4972671;28;20113;-72
2021/01/09 13:02:21;;;;;;;43.70;29.87;;;128.60;2073.60;;;;;;4972840;28;20109;-73
2021/01/09 13:04:47;;;;;;;36.50;27.27;;;128.60;2073.60;;;;;;4973713;28;20539;-73
2021/01/09 13:07:13;;;;;;;45.13;29.97;;;128.50;2022.40;;;;;;4973424;28;20029;-73
2021/01/09 13:09:39;;;;;;;44.23;29.17;;;128.50;2048.00;;;;;;4972010;28;20026;-72